Time;durP1;ratioP1;P1;durP2;ratioP2;P2;SDS_P1;SDS_P2;PMS_P1;PMS_P2;Temp;Humidity;BMP_temperature;BMP_pressure;BME280_temperature;BME280_humidity;BME280_pressure;Samples;Min_cycle;Max_cycle;Signal;HPM_P1;HPM_P2
2022/05/30 00:00:43;;;;;;;4.00;3.70;;;7.60;99.90;;;;;;4965186;28;20204;-84
2022/05/30 00:03:10;;;;;;;5.10;4.70;;;7.60;99.90;;;;;;4966406;28;20281;-84
2022/05/30 00:05:37;;;;;;;4.15;3.78;;;7.60;99.90;;;;;;4966500;28;20212;-82
2022/05/30 00:08:04;;;;;;;6.05;4.75;;;7.50;99.90;;;;;;4965787;28;20224;-84
2022/05/30 00:10:31;;;;;;;3.78;3.47;;;7.50;99.90;;;;;;4965204;28;20236;-83
2022/05/30 00:12:57;;;;;;;4.05;3.75;;;7.40;99.90;;;;;;4964374;28;20212;-83
2022/05/30 00:15:25;;;;;;;4.20;3.92;;;7.50;99.90;;;;;;4964289;28;20205;-83
2022/05/30 00:17:57;;;;;;;4.80;3.33;;;7.50;99.90;;;;;;4966041;28;20222;-83
2022/05/30 00:20:24;;;;;;;3.40;3.20;;;7.40;99.90;;;;;;4962057;28;20205;-83
2022/05/30 00:22:51;;;;;;;3.20;2.90;;;7.40;99.90;;;;;;4965542;28;20205;-83
2022/05/30 00:25:19;;;;;;;3.72;3.40;;;7.40;99.90;;;;;;4966617;28;20200;-83
2022/05/30 00:27:46;;;;;;;4.20;3.90;;;7.40;99.90;;;;;;4963967;28;20231;-83
2022/05/30 00:30:14;;;;;;;3.92;3.72;;;7.40;99.90;;;;;;4973907;28;20232;-82
2022/05/30 00:32:43;;;;;;;4.47;4.28;;;7.20;99.90;;;;;;4978834;28;20200;-82
2022/05/30 00:35:11;;;;;;;4.20;3.90;;;7.30;99.90;;;;;;4960677;28;20213;-83
2022/05/30 00:37:38;;;;;;;3.80;3.45;;;7.30;99.90;;;;;;4962073;28;20225;-83
2022/05/30 00:40:06;;;;;;;4.65;4.35;;;7.20;99.90;;;;;;4956162;28;20213;-82
2022/05/30 00:42:33;;;;;;;4.28;3.97;;;7.30;99.90;;;;;;4963340;28;20260;-82
2022/05/30 00:45:01;;;;;;;4.20;3.85;;;7.30;99.90;;;;;;4965024;28;20228;-84
2022/05/30 00:47:28;;;;;;;3.70;3.40;;;7.30;99.90;;;;;;4956556;28;20204;-83
2022/05/30 00:49:57;;;;;;;4.10;3.78;;;7.30;99.90;;;;;;4956117;28;20647;-82
2022/05/30 00:52:29;;;;;;;4.05;3.40;;;7.20;99.90;;;;;;4962636;28;20212;-83
2022/05/30 00:55:00;;;;;;;4.40;4.10;;;7.10;99.90;;;;;;4966153;28;20201;-82
2022/05/30 00:57:28;;;;;;;3.70;3.50;;;7.10;99.90;;;;;;4961790;28;20197;-83
2022/05/30 00:59:58;;;;;;;4.07;3.83;;;7.20;99.90;;;;;;4955246;28;20205;-82
2022/05/30 01:02:27;;;;;;;5.40;4.75;;;7.20;99.90;;;;;;4955604;28;20208;-83
2022/05/30 01:07:41;;;;;;;5.95;4.63;;;7.00;99.90;;;;;;4955245;29;20227;-84
2022/05/30 01:10:10;;;;;;;4.63;4.22;;;7.00;99.90;;;;;;4954657;28;20221;-83
2022/05/30 01:12:40;;;;;;;4.43;4.13;;;7.10;99.90;;;;;;4955227;28;20224;-83
2022/05/30 01:15:10;;;;;;;4.20;3.78;;;7.10;99.90;;;;;;4936207;29;20225;-83
2022/05/30 01:17:47;;;;;;;5.18;4.85;;;7.20;99.90;;;;;;4936936;29;20225;-83
2022/05/30 01:20:23;;;;;;;4.30;3.95;;;7.20;99.90;;;;;;4955279;28;20209;-83
2022/05/30 01:23:22;;;;;;;5.10;3.88;;;7.20;99.90;;;;;;4955286;28;20224;-83
2022/05/30 01:26:12;;;;;;;4.50;4.10;;;7.20;99.90;;;;;;4940679;29;20240;-83
2022/05/30 01:28:46;;;;;;;4.40;4.00;;;7.20;99.90;;;;;;4954695;28;20233;-83
2022/05/30 01:31:14;;;;;;;4.28;3.97;;;7.10;99.90;;;;;;4940797;29;20225;-83
2022/05/30 01:33:41;;;;;;;4.97;4.35;;;7.10;99.90;;;;;;4955717;28;20209;-84
2022/05/30 01:36:08;;;;;;;4.68;4.28;;;7.00;99.90;;;;;;4956149;28;20232;-84
2022/05/30 01:38:36;;;;;;;5.05;4.53;;;7.10;99.90;;;;;;4955851;28;20232;-83
2022/05/30 01:41:03;;;;;;;4.35;4.05;;;7.10;99.90;;;;;;4955736;28;20210;-82
2022/05/30 01:43:30;;;;;;;4.50;4.20;;;7.10;99.90;;;;;;4956648;28;20205;-83
2022/05/30 01:46:04;;;;;;;4.20;3.80;;;7.10;99.90;;;;;;4957402;28;20224;-83
2022/05/30 01:48:31;;;;;;;5.68;4.38;;;7.20;99.90;;;;;;4959743;28;20221;-83
2022/05/30 01:50:59;;;;;;;4.22;3.85;;;7.00;99.90;;;;;;4958852;28;20220;-84
2022/05/30 01:53:27;;;;;;;3.80;3.50;;;6.90;99.90;;;;;;4958918;28;20759;-83
2022/05/30 01:55:54;;;;;;;5.03;3.90;;;6.90;99.90;;;;;;4960586;28;20217;-83
2022/05/30 01:58:20;;;;;;;3.42;3.22;;;6.90;99.90;;;;;;4960101;28;20225;-83
2022/05/30 02:00:47;;;;;;;3.95;3.65;;;6.90;99.90;;;;;;4960074;28;20216;-83
2022/05/30 02:03:15;;;;;;;4.60;4.20;;;6.90;99.90;;;;;;4960390;28;20216;-83
2022/05/30 02:05:42;;;;;;;6.30;4.05;;;6.90;99.90;;;;;;4960324;28;20205;-83
2022/05/30 02:08:09;;;;;;;4.43;4.00;;;6.80;99.90;;;;;;4960359;28;20225;-84
2022/05/30 02:10:36;;;;;;;5.00;4.60;;;6.80;99.90;;;;;;4959706;28;20236;-84
2022/05/30 02:13:05;;;;;;;3.92;3.50;;;6.80;99.90;;;;;;4960316;28;20208;-83
2022/05/30 02:17:00;;;;;;;4.70;4.40;;;6.80;99.90;;;;;;4959338;28;20632;-84
2022/05/30 02:18:19;;;;;;;4.45;4.15;;;6.80;99.90;;;;;;4958843;28;20647;-84
2022/05/30 02:20:46;;;;;;;5.15;4.60;;;6.80;99.90;;;;;;4959216;28;20466;-83
2022/05/30 02:23:13;;;;;;;4.90;4.60;;;6.70;99.90;;;;;;4968668;28;20204;-82
2022/05/30 02:25:41;;;;;;;5.75;5.25;;;6.70;99.90;;;;;;4966930;28;20212;-83
2022/05/30 02:28:07;;;;;;;5.38;5.00;;;6.70;99.90;;;;;;4969614;28;20592;-81
2022/05/30 02:30:34;;;;;;;6.25;5.85;;;6.70;99.90;;;;;;4967927;28;20224;-83
2022/05/30 02:38:27;;;;;;;8.25;7.50;;;6.70;99.90;;;;;;4967469;28;20324;-83
2022/05/30 02:40:54;;;;;;;9.27;8.32;;;6.70;99.90;;;;;;4968112;28;20208;-82
2022/05/30 02:43:20;;;;;;;9.80;9.00;;;6.70;99.90;;;;;;4957654;28;20205;-83
2022/05/30 02:45:47;;;;;;;8.90;8.05;;;6.70;99.90;;;;;;4957494;28;20231;-83
2022/05/30 02:48:14;;;;;;;8.93;8.27;;;6.70;99.90;;;;;;4957337;28;20232;-83
2022/05/30 02:50:41;;;;;;;9.43;8.73;;;6.70;99.90;;;;;;4957274;28;20221;-83
2022/05/30 02:53:09;;;;;;;8.75;7.22;;;6.60;99.90;;;;;;4957731;28;20208;-84
2022/05/30 02:55:36;;;;;;;8.30;7.50;;;6.60;99.90;;;;;;4958211;28;20213;-83
2022/05/30 02:58:03;;;;;;;7.38;6.75;;;6.60;99.90;;;;;;4957852;28;20228;-83
2022/05/30 03:00:29;;;;;;;7.47;6.88;;;6.60;99.90;;;;;;4957090;28;20219;-83
2022/05/30 03:02:56;;;;;;;6.88;6.25;;;6.60;99.90;;;;;;4957792;28;20209;-82
2022/05/30 03:05:23;;;;;;;7.15;6.43;;;6.60;99.90;;;;;;4959922;28;20715;-83
2022/05/30 03:07:50;;;;;;;7.55;6.80;;;6.60;99.90;;;;;;4960407;28;20221;-82
2022/05/30 03:10:18;;;;;;;8.07;6.30;;;6.60;99.90;;;;;;4962117;28;20777;-82
2022/05/30 03:12:45;;;;;;;8.48;6.63;;;6.60;99.90;;;;;;4962383;28;20302;-82
2022/05/30 03:15:12;;;;;;;8.43;7.63;;;6.60;99.90;;;;;;4963132;28;20216;-82
2022/05/30 03:17:38;;;;;;;8.60;7.72;;;6.50;99.90;;;;;;4962825;28;20408;-82
2022/05/30 03:20:06;;;;;;;7.43;6.80;;;6.50;99.90;;;;;;4962339;28;20201;-81
2022/05/30 03:22:33;;;;;;;7.82;7.10;;;6.50;99.90;;;;;;4961670;28;20290;-82
2022/05/30 03:24:59;;;;;;;7.70;7.05;;;6.40;99.90;;;;;;4963023;28;20557;-81
2022/05/30 03:27:27;;;;;;;7.22;6.53;;;6.40;99.90;;;;;;4962784;28;20208;-82
2022/05/30 03:29:54;;;;;;;7.45;6.57;;;6.40;99.90;;;;;;4962360;28;20205;-82
2022/05/30 03:32:21;;;;;;;6.43;5.90;;;6.40;99.90;;;;;;4962140;28;20216;-82
2022/05/30 03:34:47;;;;;;;6.38;5.85;;;6.40;99.90;;;;;;4962323;28;20209;-82
2022/05/30 03:37:14;;;;;;;6.57;6.07;;;6.40;99.90;;;;;;4961752;28;20206;-82
2022/05/30 03:39:41;;;;;;;6.65;6.22;;;6.40;99.90;;;;;;4961924;28;20217;-81
2022/05/30 03:42:13;;;;;;;6.10;5.63;;;6.40;99.90;;;;;;4962316;28;20217;-82
2022/05/30 03:44:41;;;;;;;7.05;6.43;;;6.30;99.90;;;;;;4961101;28;20284;-81
2022/05/30 03:47:08;;;;;;;7.63;6.85;;;6.00;99.90;;;;;;4962186;28;20217;-82
2022/05/30 03:49:35;;;;;;;7.20;6.55;;;5.90;99.90;;;;;;4961920;28;20209;-82
2022/05/30 03:52:02;;;;;;;11.35;7.53;;;5.90;99.90;;;;;;4961467;28;20217;-82
2022/05/30 03:54:28;;;;;;;8.82;6.63;;;6.00;99.90;;;;;;4962124;28;20212;-82
2022/05/30 03:56:55;;;;;;;6.72;6.13;;;6.00;99.90;;;;;;4962329;28;20209;-82
2022/05/30 03:59:23;;;;;;;8.95;6.28;;;6.00;99.90;;;;;;4961747;28;20229;-82
2022/05/30 04:01:51;;;;;;;6.32;5.75;;;6.00;99.90;;;;;;4961514;28;20201;-81
2022/05/30 04:04:17;;;;;;;6.50;5.80;;;6.00;99.90;;;;;;4961642;28;20220;-81
2022/05/30 04:06:44;;;;;;;6.35;5.90;;;6.10;99.90;;;;;;4961145;28;20201;-82
2022/05/30 04:09:11;;;;;;;6.55;6.00;;;6.10;99.90;;;;;;4970085;28;20228;-81
2022/05/30 04:11:38;;;;;;;5.03;4.63;;;6.20;99.90;;;;;;4960771;28;20235;-82
2022/05/30 04:14:04;;;;;;;5.38;4.82;;;6.20;99.90;;;;;;4962136;28;20209;-82
2022/05/30 04:16:31;;;;;;;5.82;5.38;;;6.30;99.90;;;;;;4961536;28;20212;-81
2022/05/30 04:19:01;;;;;;;7.00;6.40;;;6.30;99.90;;;;;;4962337;28;20231;-82
2022/05/30 04:21:28;;;;;;;6.78;6.10;;;6.30;99.90;;;;;;4962619;28;20565;-81
2022/05/30 04:23:55;;;;;;;6.20;5.80;;;6.40;99.90;;;;;;4961568;28;20208;-81
2022/05/30 04:26:21;;;;;;;7.25;6.43;;;6.40;99.90;;;;;;4961080;28;20216;-81
2022/05/30 04:28:48;;;;;;;6.47;5.22;;;6.40;99.90;;;;;;4961074;28;20304;-82
2022/05/30 04:31:15;;;;;;;5.97;5.47;;;6.40;99.90;;;;;;4960128;28;20686;-81
2022/05/30 04:33:43;;;;;;;5.63;5.13;;;6.50;99.90;;;;;;4961220;28;20206;-81
2022/05/30 04:36:13;;;;;;;5.90;5.50;;;6.50;99.90;;;;;;4961452;28;20212;-81
2022/05/30 04:38:40;;;;;;;6.05;5.53;;;6.50;99.90;;;;;;4960542;28;20248;-81
2022/05/30 04:41:06;;;;;;;6.72;6.15;;;6.60;99.90;;;;;;4960885;28;20201;-81
2022/05/30 04:43:33;;;;;;;6.43;5.05;;;6.60;99.90;;;;;;4960835;28;20216;-81
2022/05/30 04:46:08;;;;;;;5.32;4.93;;;6.70;99.90;;;;;;4961388;28;20212;-81
2022/05/30 04:48:34;;;;;;;6.97;6.38;;;6.70;99.90;;;;;;4960724;28;20224;-81
2022/05/30 04:51:01;;;;;;;6.80;5.53;;;6.80;99.90;;;;;;4960846;28;20252;-81
2022/05/30 04:53:29;;;;;;;7.45;6.95;;;6.80;99.90;;;;;;4961077;28;20306;-82
2022/05/30 04:55:56;;;;;;;7.57;6.30;;;6.80;99.90;;;;;;4960947;28;20208;-82
2022/05/30 04:58:23;;;;;;;5.80;5.40;;;6.90;99.90;;;;;;4965596;28;20237;-81
2022/05/30 05:00:50;;;;;;;6.78;6.10;;;6.90;99.90;;;;;;4965374;28;20214;-82
2022/05/30 05:03:17;;;;;;;5.50;5.10;;;7.00;99.90;;;;;;4961270;28;20220;-81
2022/05/30 05:05:44;;;;;;;6.45;5.95;;;7.10;99.90;;;;;;4961520;28;20220;-81
2022/05/30 05:08:33;;;;;;;7.00;6.40;;;7.10;99.90;;;;;;4960771;28;20279;-82
2022/05/30 05:11:06;;;;;;;7.25;6.65;;;7.20;99.90;;;;;;4960529;28;20228;-81
2022/05/30 05:13:35;;;;;;;6.35;5.85;;;7.30;99.90;;;;;;4955392;29;20214;-81
2022/05/30 05:16:02;;;;;;;7.35;6.75;;;7.30;99.90;;;;;;4971190;28;20220;-82
2022/05/30 05:18:29;;;;;;;7.03;6.50;;;7.40;99.90;;;;;;4963125;28;20237;-82
2022/05/30 05:20:56;;;;;;;6.53;6.03;;;7.50;99.90;;;;;;4962038;28;20209;-82
2022/05/30 05:23:22;;;;;;;6.20;5.60;;;7.60;99.90;;;;;;4968334;28;20214;-82
2022/05/30 05:25:51;;;;;;;7.15;6.43;;;7.70;99.90;;;;;;4974581;28;20224;-82
2022/05/30 05:28:18;;;;;;;7.80;7.07;;;7.80;99.90;;;;;;4974675;28;20267;-82
2022/05/30 05:30:44;;;;;;;14.50;8.10;;;7.90;99.90;;;;;;4946664;29;20233;-82
2022/05/30 05:33:12;;;;;;;7.68;7.03;;;8.00;99.90;;;;;;4947403;29;20591;-82
2022/05/30 05:35:41;;;;;;;6.70;6.20;;;8.10;99.90;;;;;;4972600;29;20210;-82
2022/05/30 05:38:09;;;;;;;7.30;6.75;;;8.20;99.90;;;;;;4975510;28;20225;-82
2022/05/30 05:40:39;;;;;;;7.93;7.32;;;8.30;99.90;;;;;;4970441;28;20208;-82
2022/05/30 05:43:07;;;;;;;6.68;5.97;;;8.40;99.90;;;;;;4966750;28;20197;-83
2022/05/30 05:45:34;;;;;;;6.78;6.25;;;8.50;99.90;;;;;;4965156;28;20215;-82
2022/05/30 05:48:01;;;;;;;6.38;5.90;;;8.60;99.90;;;;;;4968303;28;20229;-81
2022/05/30 05:50:27;;;;;;;6.35;5.85;;;8.70;99.90;;;;;;4970030;28;20206;-82
2022/05/30 05:52:54;;;;;;;6.75;5.20;;;8.70;99.90;;;;;;4970921;28;20220;-82
2022/05/30 05:55:21;;;;;;;6.15;5.75;;;8.80;99.90;;;;;;4972412;28;20210;-83
2022/05/30 05:57:48;;;;;;;5.75;5.25;;;8.90;99.90;;;;;;4973999;28;20242;-83
2022/05/30 06:00:18;;;;;;;6.18;5.70;;;9.00;99.90;;;;;;4974415;28;20207;-83
2022/05/30 06:02:45;;;;;;;8.77;5.40;;;9.10;99.90;;;;;;4973034;28;20412;-83
2022/05/30 06:05:12;;;;;;;10.03;5.70;;;9.20;99.90;;;;;;4973208;28;20468;-83
2022/05/30 06:07:41;;;;;;;5.80;5.30;;;9.30;99.90;;;;;;4966339;28;20483;-84
2022/05/30 06:10:10;;;;;;;6.22;5.60;;;9.50;99.90;;;;;;4963124;28;20475;-83
2022/05/30 06:12:39;;;;;;;5.50;5.03;;;9.50;99.90;;;;;;4963276;28;20249;-82
2022/05/30 06:15:07;;;;;;;6.77;5.90;;;9.60;99.90;;;;;;4961944;28;20214;-82
2022/05/30 06:17:39;;;;;;;6.80;6.10;;;9.80;99.90;;;;;;4961816;28;20481;-82
2022/05/30 06:20:12;;;;;;;7.70;6.13;;;9.90;99.90;;;;;;4962583;28;20439;-84
2022/05/30 06:22:39;;;;;;;6.70;6.10;;;9.90;99.90;;;;;;4966992;28;20442;-83
2022/05/30 06:25:06;;;;;;;11.00;7.70;;;10.00;99.90;;;;;;4957092;29;20459;-84
2022/05/30 06:27:34;;;;;;;6.80;6.10;;;10.10;99.90;;;;;;4962628;28;20469;-84
2022/05/30 06:30:01;;;;;;;9.50;6.40;;;10.20;99.90;;;;;;4964139;28;20497;-81
2022/05/30 06:32:28;;;;;;;7.63;6.23;;;10.30;99.90;;;;;;4962283;28;20847;-82
2022/05/30 06:34:57;;;;;;;9.70;5.77;;;10.40;99.90;;;;;;4964148;28;20530;-83
2022/05/30 06:37:23;;;;;;;7.80;5.80;;;10.40;99.90;;;;;;4964450;28;20506;-83
2022/05/30 06:39:52;;;;;;;6.13;5.50;;;10.50;99.90;;;;;;4976523;28;20919;-83
2022/05/30 06:42:19;;;;;;;7.63;6.40;;;10.60;99.90;;;;;;4961490;28;20456;-83
2022/05/30 06:44:52;;;;;;;6.53;5.43;;;10.70;99.90;;;;;;4960104;29;20452;-84
2022/05/30 06:47:19;;;;;;;8.33;5.10;;;10.80;99.90;;;;;;4960723;28;20459;-83
2022/05/30 06:50:03;;;;;;;6.80;5.10;;;10.80;99.90;;;;;;4961721;28;20463;-84
2022/05/30 06:52:48;;;;;;;6.70;6.10;;;10.90;99.90;;;;;;4962333;28;20485;-85
2022/05/30 06:55:14;;;;;;;10.90;5.10;;;11.00;99.90;;;;;;4961002;28;20452;-80
2022/05/30 07:00:30;;;;;;;5.10;4.60;;;11.20;99.90;;;;;;4967418;28;20438;-80
2022/05/30 07:02:56;;;;;;;4.40;4.10;;;11.20;99.90;;;;;;4962813;28;20885;-80
2022/05/30 07:05:25;;;;;;;4.30;4.00;;;11.20;99.90;;;;;;4969733;28;20455;-82
2022/05/30 07:07:56;;;;;;;4.60;4.20;;;11.30;99.90;;;;;;4978383;28;20927;-80
2022/05/30 07:10:22;;;;;;;5.57;4.00;;;11.40;99.90;;;;;;4970148;28;20576;-81
2022/05/30 07:12:49;;;;;;;5.03;4.53;;;11.50;99.90;;;;;;4973012;28;20488;-81
2022/05/30 07:15:16;;;;;;;6.63;4.70;;;11.50;99.90;;;;;;4973501;28;20460;-81
2022/05/30 07:17:56;;;;;;;4.90;4.50;;;11.50;99.90;;;;;;4964960;28;20484;-82
2022/05/30 07:20:34;;;;;;;4.23;3.83;;;11.50;99.90;;;;;;4959291;28;20478;-81
2022/05/30 07:23:34;;;;;;;5.73;5.23;;;11.40;99.90;;;;;;4956542;28;20460;-81
2022/05/30 07:26:08;;;;;;;5.30;4.77;;;11.60;99.90;;;;;;4957516;28;20526;-80
2022/05/30 07:28:51;;;;;;;5.83;4.20;;;11.90;99.90;;;;;;4968371;28;20455;-80
2022/05/30 07:31:29;;;;;;;4.90;3.10;;;12.10;99.90;;;;;;4962820;28;20519;-82
2022/05/30 07:33:57;;;;;;;3.60;3.37;;;12.10;99.90;;;;;;4962560;28;20538;-81
2022/05/30 07:36:27;;;;;;;4.00;3.70;;;12.00;99.90;;;;;;4964097;28;20464;-81
2022/05/30 07:39:07;;;;;;;6.60;6.10;;;12.10;99.90;;;;;;4964748;28;20480;-84
2022/05/30 07:41:39;;;;;;;5.60;5.10;;;12.30;99.90;;;;;;4964526;28;20836;-83
2022/05/30 07:47:43;;;;;;;5.23;4.83;;;12.30;99.90;;;;;;4958867;28;20479;-83
2022/05/30 07:50:11;;;;;;;5.70;5.30;;;12.40;99.90;;;;;;4962536;29;20570;-83
2022/05/30 07:52:39;;;;;;;5.07;3.87;;;12.50;99.90;;;;;;4964451;29;20492;-81
2022/05/30 07:55:07;;;;;;;4.53;3.20;;;12.60;99.90;;;;;;4966148;28;20831;-82
2022/05/30 08:00:20;;;;;;;4.30;3.77;;;13.00;98.60;;;;;;4970246;28;21004;-81
2022/05/30 08:02:47;;;;;;;3.23;3.00;;;13.30;97.50;;;;;;4969874;28;20437;-82
2022/05/30 08:05:25;;;;;;;8.10;3.07;;;13.50;97.30;;;;;;4963944;28;20810;-84
2022/05/30 08:07:53;;;;;;;3.37;3.17;;;13.70;97.10;;;;;;4961636;28;20470;-83
2022/05/30 08:10:21;;;;;;;6.53;3.37;;;13.90;96.40;;;;;;4961960;28;20784;-82
2022/05/30 08:12:47;;;;;;;3.17;2.97;;;14.20;96.20;;;;;;4962001;28;20492;-82
2022/05/30 08:15:16;;;;;;;3.70;2.60;;;14.20;94.00;;;;;;4963438;28;20450;-82
2022/05/30 08:17:43;;;;;;;3.60;2.60;;;14.20;94.50;;;;;;4964249;28;20479;-82
2022/05/30 08:20:12;;;;;;;4.20;2.63;;;14.40;94.10;;;;;;4969515;28;20453;-82
2022/05/30 08:22:39;;;;;;;3.50;2.70;;;14.60;92.90;;;;;;4963241;28;20455;-80
2022/05/30 08:25:10;;;;;;;2.70;2.57;;;14.70;92.10;;;;;;4961233;28;20480;-80
2022/05/30 08:27:38;;;;;;;1.60;1.50;;;14.80;92.20;;;;;;4959675;28;20975;-79
2022/05/30 08:30:06;;;;;;;2.90;2.70;;;15.00;91.10;;;;;;4960827;28;20454;-79
2022/05/30 08:32:35;;;;;;;3.20;2.37;;;15.10;91.60;;;;;;4961329;28;20492;-79
2022/05/30 08:35:03;;;;;;;2.40;2.07;;;15.10;90.80;;;;;;4958409;28;20457;-80
2022/05/30 08:37:31;;;;;;;3.33;3.10;;;15.00;91.40;;;;;;4960772;28;20464;-80
2022/05/30 08:42:46;;;;;;;2.30;2.20;;;15.20;90.10;;;;;;4960471;29;20428;-80
2022/05/30 08:45:18;;;;;;;2.10;1.90;;;15.10;88.90;;;;;;4961589;28;20462;-80
2022/05/30 08:47:51;;;;;;;4.40;2.60;;;15.20;88.30;;;;;;4961015;28;20480;-80
2022/05/30 08:50:35;;;;;;;3.00;2.50;;;15.30;88.50;;;;;;4962194;29;20453;-80
2022/05/30 08:53:44;;;;;;;3.33;2.20;;;15.30;83.70;;;;;;4963075;29;20529;-80
2022/05/30 08:56:24;;;;;;;3.80;2.70;;;15.40;88.90;;;;;;4961453;29;20453;-81
2022/05/30 08:59:03;;;;;;;2.40;2.20;;;15.60;90.00;;;;;;4958591;28;20477;-79
2022/05/30 09:01:35;;;;;;;2.90;2.17;;;15.70;89.30;;;;;;4955478;28;20725;-79
2022/05/30 09:04:10;;;;;;;4.30;3.30;;;15.90;84.50;;;;;;4956722;28;20842;-80
2022/05/30 09:06:43;;;;;;;2.30;2.20;;;15.60;83.30;;;;;;4955862;28;20456;-79
2022/05/30 09:11:49;;;;;;;5.87;2.60;;;16.00;79.40;;;;;;4125561;26;20482;-82
2022/05/30 09:14:24;;;;;;;2.23;2.03;;;16.20;85.20;;;;;;4958084;28;20439;-82
2022/05/30 09:16:57;;;;;;;3.70;1.60;;;16.40;82.10;;;;;;4956972;28;20455;-82
2022/05/30 09:42:16;;;;;;;4.03;2.33;;;17.00;72.30;;;;;;4912194;29;20454;-80
2022/05/30 09:57:29;;;;;;;6.97;2.23;;;17.90;70.90;;;;;;4916660;29;20600;-84
2022/05/30 10:00:10;;;;;;;1.73;1.40;;;18.10;70.20;;;;;;4895064;29;20567;-83
2022/05/30 10:02:41;;;;;;;1.50;1.30;;;18.30;67.80;;;;;;4896339;29;20459;-82
2022/05/30 10:05:25;;;;;;;1.33;1.30;;;18.50;64.90;;;;;;4915233;29;20461;-81
2022/05/30 10:07:54;;;;;;;2.70;2.00;;;18.60;62.90;;;;;;4990563;23;20555;-82
2022/05/30 10:10:23;;;;;;;1.97;1.50;;;18.70;63.80;;;;;;4976708;28;20846;-83
2022/05/30 10:12:59;;;;;;;1.07;1.07;;;18.70;63.70;;;;;;4978570;28;20488;-82
2022/05/30 10:15:30;;;;;;;2.63;1.47;;;18.90;63.00;;;;;;4978157;28;20463;-82
2022/05/30 10:17:59;;;;;;;2.30;1.30;;;19.10;64.80;;;;;;4961003;28;20477;-82
2022/05/30 10:20:39;;;;;;;1.57;1.47;;;18.80;57.50;;;;;;4958997;29;20463;-82
2022/05/30 10:29:05;;;;;;;2.27;1.90;;;18.50;57.00;;;;;;4959578;29;20445;-83
2022/05/30 10:31:41;;;;;;;1.57;1.47;;;18.40;57.10;;;;;;4958817;29;20508;-83
2022/05/30 10:34:36;;;;;;;2.53;1.20;;;18.10;57.70;;;;;;4959200;29;20454;-82
2022/05/30 10:37:19;;;;;;;1.77;1.33;;;18.30;60.10;;;;;;4954765;29;20477;-82
2022/05/30 10:40:11;;;;;;;2.20;1.60;;;18.50;58.60;;;;;;4959487;29;20522;-82
2022/05/30 10:42:43;;;;;;;1.90;1.57;;;18.40;56.80;;;;;;4959368;29;20456;-82
2022/05/30 10:45:17;;;;;;;2.00;1.90;;;18.10;55.40;;;;;;4959315;29;20467;-82
2022/05/30 10:47:45;;;;;;;1.40;1.30;;;17.60;55.40;;;;;;4958852;29;20486;-82
2022/05/30 10:50:17;;;;;;;1.40;1.30;;;17.60;55.10;;;;;;4958992;29;20527;-80
2022/05/30 10:52:51;;;;;;;2.80;1.50;;;17.60;56.40;;;;;;4958825;29;21044;-81
2022/05/30 10:55:23;;;;;;;1.40;1.33;;;17.80;56.50;;;;;;4958768;29;20457;-82
2022/05/30 10:57:55;;;;;;;1.70;1.60;;;18.10;56.30;;;;;;4959681;29;20484;-82
2022/05/30 11:00:29;;;;;;;1.60;1.50;;;18.40;56.40;;;;;;4958991;29;20452;-81
2022/05/30 11:03:05;;;;;;;1.43;1.20;;;18.90;56.80;;;;;;4959346;29;20457;-82
2022/05/30 11:05:40;;;;;;;2.27;1.30;;;18.90;52.90;;;;;;4958707;29;20455;-82
2022/05/30 11:08:14;;;;;;;2.57;1.50;;;19.30;55.40;;;;;;4958626;29;20492;-82
2022/05/30 11:10:48;;;;;;;1.83;1.23;;;19.00;52.80;;;;;;4958965;29;20458;-82
2022/05/30 11:13:26;;;;;;;1.63;1.50;;;18.60;54.00;;;;;;4958991;29;20491;-82
2022/05/30 11:16:00;;;;;;;1.30;1.20;;;18.10;53.80;;;;;;4957892;29;20457;-83
2022/05/30 11:18:32;;;;;;;1.60;1.50;;;18.30;54.30;;;;;;4958431;29;20538;-83
2022/05/30 11:21:08;;;;;;;3.07;2.03;;;18.40;55.00;;;;;;4957328;29;20468;-83
2022/05/30 11:23:34;;;;;;;1.40;1.30;;;18.90;56.30;;;;;;4958308;29;20487;-83
2022/05/30 11:26:19;;;;;;;2.40;1.20;;;19.10;53.80;;;;;;4957494;29;20437;-83
2022/05/30 11:29:05;;;;;;;1.87;1.67;;;18.70;53.40;;;;;;4957803;29;20457;-83
2022/05/30 11:31:40;;;;;;;2.40;1.70;;;19.00;53.40;;;;;;4957502;29;20465;-82
2022/05/30 11:34:23;;;;;;;2.00;1.90;;;19.20;51.00;;;;;;4958060;29;20552;-83
2022/05/30 11:37:22;;;;;;;2.23;1.63;;;19.40;54.30;;;;;;4958417;29;20478;-83
2022/05/30 11:40:00;;;;;;;2.33;1.50;;;20.00;54.80;;;;;;4958006;29;20430;-83
2022/05/30 11:42:34;;;;;;;1.70;1.60;;;20.70;53.10;;;;;;4957253;29;20458;-83
2022/05/30 11:45:07;;;;;;;2.40;1.13;;;21.60;53.60;;;;;;4958058;29;20452;-83
2022/05/30 11:47:47;;;;;;;1.33;1.23;;;22.00;49.80;;;;;;4957708;29;20491;-83
2022/05/30 11:50:32;;;;;;;1.10;1.00;;;21.90;47.60;;;;;;4957614;29;20444;-83
2022/05/30 11:53:27;;;;;;;1.33;1.23;;;22.60;48.60;;;;;;4957278;29;20523;-83
2022/05/30 11:56:03;;;;;;;1.50;1.40;;;23.10;46.20;;;;;;4958083;29;20459;-82
2022/05/30 11:58:49;;;;;;;3.10;1.50;;;23.30;44.30;;;;;;4957973;29;20471;-83
2022/05/30 12:01:18;;;;;;;1.63;1.10;;;23.30;46.60;;;;;;4958009;29;20464;-83
2022/05/30 12:04:24;;;;;;;1.30;1.20;;;23.50;46.60;;;;;;4958056;29;20461;-83
2022/05/30 12:07:19;;;;;;;1.53;1.40;;;24.10;45.90;;;;;;4957156;29;20482;-83
2022/05/30 12:10:04;;;;;;;1.30;1.20;;;25.00;47.00;;;;;;4951979;29;20475;-83
2022/05/30 12:12:48;;;;;;;1.23;0.93;;;26.00;45.40;;;;;;4957677;29;20490;-83
2022/05/30 12:15:31;;;;;;;1.70;1.50;;;26.90;40.60;;;;;;4957495;29;20456;-83
2022/05/30 12:24:31;;;;;;;2.30;1.53;;;27.80;36.40;;;;;;4957744;29;20423;-83
2022/05/30 12:27:02;;;;;;;1.83;1.23;;;26.00;35.50;;;;;;4957405;29;20481;-83
2022/05/30 12:29:48;;;;;;;1.70;1.60;;;24.10;36.70;;;;;;4957483;29;20493;-83
2022/05/30 12:32:37;;;;;;;2.07;1.70;;;22.80;38.90;;;;;;4953918;29;20473;-83
2022/05/30 12:35:26;;;;;;;2.13;1.40;;;22.30;40.50;;;;;;4956789;29;20506;-83
2022/05/30 12:38:09;;;;;;;1.67;1.27;;;21.80;40.40;;;;;;4956603;29;20470;-82
2022/05/30 12:40:38;;;;;;;1.10;1.10;;;21.90;40.80;;;;;;4956345;29;20454;-83
2022/05/30 12:43:15;;;;;;;1.40;1.30;;;21.90;43.10;;;;;;4957180;29;20431;-83
2022/05/30 12:45:46;;;;;;;1.93;1.73;;;21.70;43.30;;;;;;4957234;29;20459;-83
2022/05/30 12:48:17;;;;;;;3.80;1.60;;;21.70;43.20;;;;;;4957332;29;20502;-83
2022/05/30 12:51:00;;;;;;;1.53;1.43;;;21.70;43.70;;;;;;4957091;29;20466;-83
2022/05/30 12:54:07;;;;;;;2.63;1.50;;;21.70;43.40;;;;;;4956882;29;20492;-83
2022/05/30 12:57:00;;;;;;;2.20;1.80;;;21.50;43.30;;;;;;4956522;29;20482;-83
2022/05/30 12:59:33;;;;;;;2.00;1.23;;;21.10;42.70;;;;;;4957015;29;20449;-83
2022/05/30 13:02:01;;;;;;;3.70;2.07;;;21.20;44.00;;;;;;4956727;29;20467;-83
2022/05/30 13:04:31;;;;;;;2.10;1.70;;;21.20;44.30;;;;;;4956922;29;20462;-83
2022/05/30 13:07:14;;;;;;;1.47;1.40;;;21.30;43.30;;;;;;4956374;29;20510;-83
2022/05/30 13:09:44;;;;;;;4.70;1.70;;;21.30;43.50;;;;;;4957171;29;20459;-83
2022/05/30 13:15:23;;;;;;;2.87;1.47;;;22.50;40.40;;;;;;4956600;29;20452;-83
2022/05/30 13:18:03;;;;;;;1.60;1.50;;;23.30;40.90;;;;;;4956892;29;20461;-83
2022/05/30 13:20:38;;;;;;;1.67;1.37;;;24.10;38.00;;;;;;4957270;29;20458;-83
2022/05/30 13:23:06;;;;;;;5.33;1.50;;;24.70;38.50;;;;;;4956587;29;20456;-83
2022/05/30 13:25:37;;;;;;;2.27;2.07;;;25.50;36.90;;;;;;4955317;29;20455;-85
2022/05/30 13:28:09;;;;;;;1.50;1.33;;;26.30;35.80;;;;;;4938211;29;20477;-85
2022/05/30 13:30:37;;;;;;;2.93;2.07;;;26.90;36.10;;;;;;4939099;29;20552;-85
2022/05/30 13:33:12;;;;;;;2.47;1.80;;;27.80;33.10;;;;;;4938962;29;20496;-85
2022/05/30 13:35:40;;;;;;;1.50;1.40;;;28.20;33.60;;;;;;4946069;29;20467;-85
2022/05/30 13:38:11;;;;;;;1.90;1.80;;;29.00;34.80;;;;;;4946578;29;20477;-85
2022/05/30 13:40:40;;;;;;;1.27;1.27;;;29.80;32.50;;;;;;4945293;29;20467;-85
2022/05/30 13:43:08;;;;;;;1.80;1.70;;;30.50;30.70;;;;;;4945890;29;20451;-86
2022/05/30 13:45:37;;;;;;;2.03;1.93;;;30.70;30.80;;;;;;4948645;29;20461;-85
2022/05/30 13:48:06;;;;;;;1.30;1.20;;;30.50;29.60;;;;;;4950577;29;20484;-85
2022/05/30 13:50:44;;;;;;;1.50;1.40;;;30.50;29.70;;;;;;4949590;29;20973;-86
2022/05/30 13:53:12;;;;;;;2.10;1.50;;;30.70;29.60;;;;;;4948953;29;20500;-86
2022/05/30 13:55:51;;;;;;;1.80;1.63;;;30.80;29.80;;;;;;4947100;29;20451;-86
2022/05/30 13:58:18;;;;;;;1.80;1.70;;;30.90;30.20;;;;;;4946368;29;20475;-85
2022/05/30 14:00:46;;;;;;;1.50;1.40;;;31.60;29.80;;;;;;4945389;29;20461;-85
2022/05/30 14:03:15;;;;;;;1.83;1.73;;;30.80;29.60;;;;;;4944633;29;20453;-86
2022/05/30 14:05:43;;;;;;;2.63;1.90;;;31.30;29.30;;;;;;4944985;29;20859;-85
2022/05/30 14:08:13;;;;;;;2.03;1.83;;;31.60;28.90;;;;;;4944767;29;20490;-85
2022/05/30 14:10:46;;;;;;;1.53;1.43;;;30.90;27.70;;;;;;4946434;29;20463;-85
2022/05/30 14:13:31;;;;;;;1.93;1.77;;;29.20;28.60;;;;;;4946693;29;20485;-84
2022/05/30 14:16:03;;;;;;;2.13;2.03;;;29.30;28.90;;;;;;4948515;29;20514;-85
2022/05/30 14:18:45;;;;;;;1.70;1.60;;;30.60;30.00;;;;;;4947147;29;20459;-84
2022/05/30 14:21:22;;;;;;;1.30;1.10;;;31.80;29.30;;;;;;4947503;29;20474;-85
2022/05/30 14:23:52;;;;;;;2.50;1.73;;;32.80;28.30;;;;;;4947751;29;20440;-83
2022/05/30 14:26:30;;;;;;;2.10;1.87;;;34.20;27.80;;;;;;4947554;29;20477;-84